Flight Track Log - Related Links

Times and Time Zones

All times are in EDT time to prevent confusion due to time zone crossing. See the UAL532 flight status page for this flight to view local times or setup timezone preferences in your user account.

Time Position Orientation Groundspeed Altitude Reporting Facility
EDT Latitude Longitude Course Direction KTS MPH feet Rate Location/Type
Sat 07:24:14 PM 29.9803 -95.2931 334° Northwest 153 176 1,000  Level Houston Center
Sat 07:25:33 PM 30.0564 -95.2925 360° North 238 274 3,700 2,340 Climbing Houston Center
Sat 07:26:35 PM 30.1181 -95.3394 327° Northwest 262 302 6,500 2,732 Climbing Houston Center
Sat 07:27:00 PM 30.3961 -95.5756 334° Northwest  Level FlightAware Approximate
Sat 07:27:36 PM 30.1856 -95.3875 328° Northwest 281 323 9,300  Level Houston Center
Sat 07:28:00 PM 30.5006 -95.6337 337° Northwest  Level FlightAware Approximate
Sat 07:28:37 PM 30.2567 -95.4428 326° Northwest 303 349 11,000  Level Houston Center
Sat 07:29:00 PM 30.6058 -95.6902 334° Northwest  Level FlightAware Approximate
Sat 07:29:39 PM 30.3406 -95.5075 326° Northwest 356 410 12,400  Level Houston Center
Sat 07:30:40 PM 30.4319 -95.5747 328° Northwest 383 441 14,900 2,293 Climbing Houston Center
Sat 07:31:42 PM 30.5261 -95.6469 327° Northwest 401 461 17,100 1,902 Climbing Houston Center
Sat 07:32:43 PM 30.6325 -95.7058 335° Northwest 422 486 18,800 1,869 Climbing Houston Center
Sat 07:33:44 PM 30.7611 -95.7736 336° Northwest 425 489 20,900 1,805 Climbing Houston Center
Sat 07:34:46 PM 30.8764 -95.8350 335° Northwest 440 506 22,500 1,610 Climbing Houston Center
Sat 07:35:47 PM 30.9944 -95.8997 335° Northwest 456 525 24,200 1,377 Climbing Houston Center
Sat 07:36:48 PM 31.1164 -95.9631 336° Northwest 469 540 25,300 1,171 Climbing Houston Center
Sat 07:37:50 PM 31.2461 -96.0144 341° North 483 556 26,600 1,171 Climbing Houston Center
Sat 07:38:51 PM 31.3783 -96.0650 342° North 492 566 27,700 1,377 Climbing Houston Center
Sat 07:39:52 PM 31.5153 -96.1181 342° North 494 568 29,400 1,610 Climbing Houston Center
Sat 07:40:54 PM 31.6447 -96.1689 342° North 489 563 31,000 1,537 Climbing Houston Center
Sat 07:41:53 PM 31.7797 -96.2233 341° North 483 556 32,500 1,311 Climbing Fort Worth Center
Sat 07:42:53 PM 31.8992 -96.2731 341° North 463 533 33,600 750 Climbing Fort Worth Center
Sat 07:43:53 PM 32.0250 -96.3231 341° North 463 533 34,000 200 Climbing Fort Worth Center
Sat 07:44:53 PM 32.1506 -96.3731 341° North 468 539 34,000  Level Fort Worth Center
Sat 07:45:53 PM 32.2578 -96.4628 325° Northwest 468 539 34,000  Level Fort Worth Center
Sat 07:46:53 PM 32.3503 -96.5675 316° Northwest 468 539 34,000  Level Fort Worth Center
Sat 07:47:53 PM 32.4450 -96.6772 316° Northwest 463 533 34,000  Level Fort Worth Center
Sat 07:48:53 PM 32.5375 -96.7800 317° Northwest 463 533 34,000  Level Fort Worth Center
Sat 07:49:53 PM 32.6319 -96.8856 317° Northwest 463 533 34,000  Level Fort Worth Center
Sat 07:50:53 PM 32.7242 -96.9911 316° Northwest 463 533 34,000  Level Fort Worth Center
Sat 07:51:53 PM 32.8100 -97.0872 317° Northwest 463 533 34,000  Level Fort Worth Center
Sat 07:52:53 PM 32.9083 -97.2056 315° West 458 527 34,000  Level Fort Worth Center
Sat 07:53:53 PM 32.9689 -97.3242 301° West 458 527 34,000  Level Fort Worth Center
Sat 07:54:53 PM 33.0400 -97.4556 303° West 469 540 34,000  Level Fort Worth Center
Sat 07:55:53 PM 33.1108 -97.5822 304° West 469 540 34,000  Level Fort Worth Center
Sat 07:56:53 PM 33.1794 -97.7064 303° West 464 534 34,000  Level Fort Worth Center
Sat 07:57:53 PM 33.2481 -97.8308 303° West 459 528 34,000  Level Fort Worth Center
Sat 07:58:53 PM 33.3164 -97.9578 303° West 459 528 34,000  Level Fort Worth Center
Sat 07:59:53 PM 33.3847 -98.0850 303° West 459 528 34,000  Level Fort Worth Center
Sat 08:00:53 PM 33.4508 -98.2103 302° West 454 522 34,000  Level Fort Worth Center
Sat 08:01:53 PM 33.5167 -98.3378 302° West 454 522 34,000  Level Fort Worth Center
Sat 08:02:53 PM 33.5908 -98.4683 304° West 465 535 34,000  Level Fort Worth Center
Sat 08:03:53 PM 33.6586 -98.5939 303° West 460 529 34,000  Level Fort Worth Center
Sat 08:04:53 PM 33.7261 -98.7197 303° West 455 524 34,000  Level Fort Worth Center
Sat 08:05:53 PM 33.7917 -98.8456 302° West 455 524 34,000  Level Fort Worth Center
Sat 08:06:53 PM 33.8608 -98.9817 301° West 450 518 34,000  Level Fort Worth Center
Sat 08:07:53 PM 33.9261 -99.1031 303° West 444 511 34,000 650 Level Fort Worth Center
Sat 08:08:53 PM 33.9911 -99.2247 303° West 437 503 35,300 1,000 Climbing Fort Worth Center
Sat 08:09:53 PM 34.0561 -99.3489 302° West 437 503 36,000 350 Climbing Fort Worth Center
Sat 08:10:53 PM 34.1189 -99.4706 302° West 437 503 36,000  Level Fort Worth Center
Sat 08:11:53 PM 34.1833 -99.5978 302° West 437 503 36,000  Level Fort Worth Center
Sat 08:12:53 PM 34.2478 -99.7250 302° West 437 503 36,000  Level Fort Worth Center
Sat 08:14:33 PM 34.3436 -99.9111 302° West 437 503 36,000  Level Albuquerque Center
Sat 08:15:35 PM 34.4203 -100.0619 302° West 436 502 36,000  Level Albuquerque Center
Sat 08:16:37 PM 34.4744 -100.1686 302° West 436 502 36,000  Level Albuquerque Center
Sat 08:17:38 PM 34.5511 -100.3161 302° West 433 498 36,000  Level Albuquerque Center
Sat 08:18:40 PM 34.6147 -100.4433 301° West 438 504 36,000  Level Albuquerque Center
Sat 08:19:42 PM 34.6803 -100.5703 302° West 443 510 36,000  Level Albuquerque Center
Sat 08:20:43 PM 34.7647 -100.6803 313° West 445 512 36,000  Level Albuquerque Center
Sat 08:21:45 PM 34.8461 -100.7931 311° West 445 512 36,000  Level Albuquerque Center
Sat 08:22:46 PM 34.9272 -100.9044 312° West 442 509 36,000  Level Albuquerque Center
Sat 08:23:48 PM 35.0106 -101.0122 313° West 440 506 36,000  Level Albuquerque Center
Sat 08:24:50 PM 35.1111 -101.1394 314° West 438 504 36,000  Level Albuquerque Center
Sat 08:25:51 PM 35.1919 -101.2453 313° West 432 497 36,000  Level Albuquerque Center
Sat 08:26:53 PM 35.2753 -101.3528 314° West 428 493 36,000  Level Albuquerque Center
Sat 08:27:54 PM 35.3586 -101.4600 314° West 430 495 36,000  Level Albuquerque Center
Sat 08:28:56 PM 35.4353 -101.5672 311° West 424 488 36,000  Level Albuquerque Center
Sat 08:29:58 PM 35.5033 -101.6867 305° West 423 487 36,000  Level Albuquerque Center
Sat 08:30:59 PM 35.5656 -101.8231 299° West 424 488 36,000  Level Albuquerque Center
Sat 08:32:01 PM 35.6242 -101.9469 300° West 423 487 36,000  Level Albuquerque Center
Sat 08:33:02 PM 35.6825 -102.0694 300° West 419 482 36,000  Level Albuquerque Center
Sat 08:34:04 PM 35.7392 -102.1919 300° West 416 479 36,000  Level Albuquerque Center
Sat 08:35:05 PM 35.7975 -102.3139 301° West 414 476 36,000  Level Albuquerque Center
Sat 08:36:07 PM 35.8536 -102.4369 299° West 413 475 36,000  Level Albuquerque Center
Sat 08:37:08 PM 35.9217 -102.5847 300° West 415 478 36,000  Level Albuquerque Center
Sat 08:38:10 PM 35.9786 -102.7078 300° West 414 476 36,000  Level Albuquerque Center
Sat 08:39:11 PM 36.0358 -102.8308 300° West 415 478 36,000  Level Albuquerque Center
Sat 08:40:13 PM 36.0928 -102.9517 300° West 413 475 36,000  Level Albuquerque Center
Sat 08:41:14 PM 36.1486 -103.0761 299° West 412 474 36,000  Level Albuquerque Center
Sat 08:42:16 PM 36.2067 -103.2019 300° West 416 479 36,000  Level Albuquerque Center
Sat 08:43:17 PM 36.2650 -103.3308 299° West 423 487 36,000  Level Albuquerque Center
Sat 08:44:19 PM 36.3314 -103.4786 299° West 421 484 36,000  Level Albuquerque Center
Sat 08:45:20 PM 36.3889 -103.6053 299° West 419 482 36,000  Level Albuquerque Center
Sat 08:46:22 PM 36.4464 -103.7331 299° West 421 484 36,000  Level Albuquerque Center
Sat 08:47:23 PM 36.5025 -103.8606 299° West 419 482 36,000  Level Albuquerque Center
Sat 08:48:25 PM 36.5592 -103.9894 299° West 422 486 36,000  Level Albuquerque Center
Sat 08:49:26 PM 36.6169 -104.1186 299° West 424 488 36,000  Level Albuquerque Center
Sat 08:50:28 PM 36.6778 -104.2550 299° West 422 486 36,000  Level Albuquerque Center
Sat 08:51:29 PM 36.7317 -104.3778 299° West 421 484 36,000  Level Albuquerque Center
Sat 08:52:31 PM 36.7958 -104.5225 299° West 423 487 36,000  Level Albuquerque Center
Sat 08:53:32 PM 36.8503 -104.6464 299° West 424 488 36,000  Level Albuquerque Center
Sat 08:54:34 PM 36.9039 -104.7689 299° West 420 483 36,000  Level Albuquerque Center
Sat 08:55:35 PM 36.9664 -104.9147 298° West 423 487 36,000  Level Albuquerque Center
Sat 08:56:43 PM 37.0272 -105.0594 298° West 421 484 36,000  Level Denver Center
Sat 08:57:44 PM 37.0800 -105.1825 298° West 417 480 36,000  Level Denver Center
Sat 08:58:45 PM 37.1342 -105.3086 298° West 426 490 36,000  Level Denver Center
Sat 08:59:46 PM 37.1981 -105.4556 299° West 427 491 36,000  Level Denver Center
Sat 09:00:47 PM 37.2508 -105.5803 298° West 425 489 36,000  Level Denver Center
Sat 09:01:49 PM 37.3058 -105.7128 298° West 424 488 36,000  Level Denver Center
Sat 09:02:50 PM 37.3697 -105.8567 299° West 422 486 36,000  Level Denver Center
Sat 09:03:51 PM 37.4364 -105.9692 307° West 417 480 36,000  Level Denver Center
Sat 09:04:52 PM 37.5019 -106.0814 306° West 416 479 36,000  Level Denver Center
Sat 09:05:53 PM 37.5764 -106.2147 305° West 417 480 36,000  Level Denver Center
Sat 09:06:54 PM 37.6425 -106.3294 306° West 419 482 36,000  Level Denver Center
Sat 09:07:55 PM 37.7175 -106.4639 305° West 420 483 36,000  Level Denver Center
Sat 09:08:56 PM 37.7806 -106.5783 305° West 416 479 36,000  Level Denver Center
Sat 09:09:58 PM 37.8522 -106.7053 306° West 418 481 36,000  Level Denver Center
Sat 09:10:59 PM 37.9178 -106.8219 305° West 425 489 36,000  Level Denver Center
Sat 09:12:00 PM 37.9833 -106.9389 305° West 426 490 36,000  Level Denver Center
Sat 09:13:01 PM 38.0378 -107.0394 305° West 431 496 36,000  Level Denver Center
Sat 09:14:02 PM 38.1242 -107.1964 305° West 426 490 36,000  Level Denver Center
Sat 09:15:03 PM 38.1894 -107.3147 305° West 426 490 36,000  Level Denver Center
Sat 09:16:04 PM 38.2647 -107.4522 305° West 425 489 36,000  Level Denver Center
Sat 09:17:05 PM 38.3278 -107.5694 304° West 421 484 36,000  Level Denver Center
Sat 09:18:07 PM 38.4008 -107.7069 304° West 417 480 36,000  Level Denver Center
Sat 09:19:08 PM 38.4639 -107.8244 304° West 419 482 36,000  Level Denver Center
Sat 09:20:09 PM 38.5306 -107.9392 307° West 421 484 36,000  Level Denver Center
Sat 09:21:10 PM 38.6122 -108.0689 309° West 419 482 36,000  Level Denver Center
Sat 09:22:11 PM 38.6833 -108.1814 309° West 424 488 36,000  Level Denver Center
Sat 09:23:12 PM 38.7525 -108.2953 308° West 424 488 36,000  Level Denver Center
Sat 09:24:14 PM 38.8336 -108.4281 308° West 424 488 36,000  Level Denver Center
Sat 09:25:15 PM 38.9044 -108.5439 308° West 429 494 36,000  Level Denver Center
Sat 09:26:16 PM 38.9756 -108.6581 309° West 427 491 36,000  Level Denver Center
Sat 09:27:17 PM 39.0569 -108.7892 309° West 420 483 36,000  Level Denver Center
Sat 09:28:18 PM 39.1264 -108.9036 308° West 421 484 36,000  Level Denver Center
Sat 09:29:20 PM 39.2086 -109.0369 309° West 423 487 36,000  Level Denver Center
Sat 09:30:21 PM 39.2778 -109.1508 308° West 420 483 36,000  Level Denver Center
Sat 09:31:22 PM 39.3467 -109.2644 308° West 417 480 36,000  Level Denver Center
Sat 09:32:23 PM 39.4269 -109.3978 308° West 419 482 36,000  Level Denver Center
Sat 09:32:56 PM 39.4611 -109.4556 307° West 420 483 36,000  Level Salt Lake Center
Sat 09:33:57 PM 39.5297 -109.5689 308° West 417 480 36,000  Level Salt Lake Center
Sat 09:34:58 PM 39.6108 -109.7039 308° West 422 486 36,000  Level Salt Lake Center
Sat 09:35:27 PM 39.6442 -109.7611 307° West 419 482 36,000  Level Denver Center
Sat 09:35:59 PM 39.6786 -109.8197 307° West 421 484 36,000  Level Salt Lake Center
Sat 09:37:00 PM 39.7469 -109.9369 307° West 423 487 36,000  Level Salt Lake Center
Sat 09:38:01 PM 39.8267 -110.0725 307° West 423 487 36,000  Level Salt Lake Center
Sat 09:39:02 PM 39.8953 -110.1889 308° West 421 484 36,000  Level Salt Lake Center
Sat 09:40:03 PM 39.9636 -110.3061 307° West 423 487 36,000  Level Salt Lake Center
Sat 09:41:04 PM 40.0436 -110.4425 307° West 424 488 36,000  Level Salt Lake Center
Sat 09:42:06 PM 40.1128 -110.5589 308° West 423 487 36,000  Level Salt Lake Center
Sat 09:43:07 PM 40.1908 -110.6961 307° West 421 484 36,000  Level Salt Lake Center
Sat 09:44:08 PM 40.2581 -110.8125 307° West 419 482 36,000  Level Salt Lake Center
Sat 09:45:09 PM 40.3239 -110.9286 307° West 418 481 36,000  Level Salt Lake Center
Sat 09:46:10 PM 40.3947 -111.0497 308° West 419 482 36,000  Level Salt Lake Center
Sat 09:47:11 PM 40.4636 -111.1736 306° West 420 483 36,000  Level Salt Lake Center
Sat 09:48:12 PM 40.5350 -111.2964 307° West 422 486 36,000  Level Salt Lake Center
Sat 09:49:14 PM 40.6050 -111.4206 307° West 424 488 36,000  Level Salt Lake Center
Sat 09:50:15 PM 40.6889 -111.5689 307° West 422 486 36,000  Level Salt Lake Center
Sat 09:51:16 PM 40.7594 -111.6939 307° West 425 489 36,000  Level Salt Lake Center
Sat 09:52:17 PM 40.8300 -111.8192 307° West 421 484 36,000  Level Salt Lake Center
Sat 09:53:18 PM 40.9011 -111.9489 306° West 429 494 36,000  Level Salt Lake Center
Sat 09:54:19 PM 40.9703 -112.0772 306° West 423 487 36,000  Level Salt Lake Center
Sat 09:55:20 PM 41.0406 -112.2036 306° West 421 484 36,000  Level Salt Lake Center
Sat 09:56:21 PM 41.1089 -112.3300 306° West 419 482 36,000  Level Salt Lake Center
Sat 09:57:23 PM 41.1772 -112.4567 306° West 421 484 36,000  Level Salt Lake Center
Sat 09:58:24 PM 41.2458 -112.5828 306° West 420 483 36,000  Level Salt Lake Center
Sat 09:59:25 PM 41.3150 -112.7086 306° West 422 486 36,000  Level Salt Lake Center
Sat 10:00:26 PM 41.3828 -112.8356 305° West 421 484 36,000  Level Salt Lake Center
Sat 10:01:27 PM 41.4517 -112.9617 306° West 421 484 36,000  Level Salt Lake Center
Sat 10:02:28 PM 41.5178 -113.0886 305° West 419 482 36,000  Level Salt Lake Center
Sat 10:03:29 PM 41.5867 -113.2169 306° West 425 489 36,000  Level Salt Lake Center
Sat 10:04:30 PM 41.6547 -113.3450 305° West 424 488 36,000  Level Salt Lake Center
Sat 10:05:31 PM 41.7375 -113.4994 306° West 426 490 36,000  Level Salt Lake Center
Sat 10:06:33 PM 41.8069 -113.6292 306° West 428 493 36,000  Level Salt Lake Center
Sat 10:07:34 PM 41.8733 -113.7603 304° West 426 490 36,000  Level Salt Lake Center
Sat 10:08:35 PM 41.9411 -113.8894 305° West 425 489 36,000  Level Salt Lake Center
Sat 10:09:36 PM 42.0117 -114.0175 307° West 427 491 36,000  Level Salt Lake Center
Sat 10:10:37 PM 42.0806 -114.1464 306° West 427 491 36,000  Level Salt Lake Center
Sat 10:11:38 PM 42.1514 -114.2775 306° West 432 497 36,000  Level Salt Lake Center
Sat 10:12:39 PM 42.2197 -114.4064 306° West 424 488 36,000  Level Salt Lake Center
Sat 10:13:40 PM 42.2886 -114.5358 306° West 425 489 36,000  Level Salt Lake Center
Sat 10:14:41 PM 42.3578 -114.6644 306° West 424 488 36,000  Level Salt Lake Center
Sat 10:15:43 PM 42.4258 -114.7939 305° West 422 486 36,000  Level Salt Lake Center
Sat 10:16:44 PM 42.4981 -114.9336 305° West 421 484 36,000  Level Salt Lake Center
Sat 10:17:45 PM 42.5750 -115.0800 306° West 427 491 36,000  Level Salt Lake Center
Sat 10:18:46 PM 42.6400 -115.2061 305° West 424 488 36,000  Level Salt Lake Center
Sat 10:19:47 PM 42.7042 -115.3297 305° West 421 484 36,000  Level Salt Lake Center
Sat 10:20:48 PM 42.7797 -115.4747 305° West 419 482 36,000  Level Salt Lake Center
Sat 10:21:49 PM 42.8431 -115.5986 305° West 416 479 36,000  Level Salt Lake Center
Sat 10:22:50 PM 42.9167 -115.7433 305° West 414 476 36,000  Level Salt Lake Center
Sat 10:23:51 PM 42.9797 -115.8694 304° West 417 480 36,000  Level Salt Lake Center
Sat 10:24:52 PM 43.0444 -115.9917 306° West 415 478 36,000  Level Salt Lake Center
Sat 10:25:53 PM 43.1192 -116.1436 304° West 409 471 36,000  Level Salt Lake Center
Sat 10:26:55 PM 43.1822 -116.2686 305° West 415 478 36,000  Level Salt Lake Center
Sat 10:27:56 PM 43.2453 -116.3947 304° West 417 480 36,000  Level Salt Lake Center
Sat 10:28:57 PM 43.3186 -116.5408 305° West 417 480 36,000  Level Salt Lake Center
Sat 10:29:58 PM 43.3808 -116.6672 304° West 415 478 36,000  Level Salt Lake Center
Sat 10:30:59 PM 43.4428 -116.7933 304° West 413 475 36,000  Level Salt Lake Center
Sat 10:32:00 PM 43.5153 -116.9414 304° West 415 478 36,000  Level Salt Lake Center
Sat 10:33:01 PM 43.5778 -117.0672 304° West 413 475 36,000  Level Salt Lake Center
Sat 10:34:02 PM 43.6397 -117.1953 304° West 416 479 36,000  Level Salt Lake Center
Sat 10:35:03 PM 43.7125 -117.3461 304° West 420 483 36,000  Level Salt Lake Center
Sat 10:36:04 PM 43.7758 -117.4750 304° West 421 484 36,000  Level Salt Lake Center
Sat 10:37:05 PM 43.8381 -117.6053 304° West 424 488 36,000  Level Salt Lake Center
Sat 10:38:06 PM 43.9097 -117.7575 303° West 420 483 36,000  Level Salt Lake Center
Sat 10:39:08 PM 43.9731 -117.8897 304° West 428 493 36,000  Level Salt Lake Center
Sat 10:40:09 PM 44.0461 -118.0428 304° West 425 489 36,000  Level Salt Lake Center
Sat 10:41:10 PM 44.1064 -118.1731 303° West 418 481 36,000  Level Salt Lake Center
Sat 10:42:11 PM 44.1681 -118.3014 304° West 417 480 36,000  Level Salt Lake Center
Sat 10:43:12 PM 44.2272 -118.4289 303° West 414 476 36,000  Level Salt Lake Center
Sat 10:44:13 PM 44.2900 -118.5628 303° West 413 475 36,000  Level Salt Lake Center
Sat 10:45:14 PM 44.3653 -118.7267 303° West 417 480 36,000  Level Salt Lake Center
Sat 10:46:15 PM 44.4269 -118.8614 303° West 414 476 36,000  Level Salt Lake Center
Sat 10:47:16 PM 44.4892 -118.9975 303° West 415 478 36,000  Level Salt Lake Center
Sat 10:48:17 PM 44.5522 -119.1353 303° West 419 482 36,000  Level Salt Lake Center
Sat 10:49:18 PM 44.6144 -119.2722 303° West 418 481 36,000  Level Salt Lake Center
Sat 10:50:20 PM 44.6767 -119.4106 302° West 419 482 36,000  Level Salt Lake Center
Sat 10:51:21 PM 44.7386 -119.5481 302° West 418 481 36,000  Level Salt Lake Center
Sat 10:52:22 PM 44.8003 -119.6853 302° West 417 480 36,000  Level Salt Lake Center
Sat 10:53:28 PM 44.8736 -119.8508 302° West 418 481 36,000  Level Seattle Center
Sat 10:54:29 PM 44.9394 -119.9978 302° West 422 486 36,000  Level Seattle Center
Sat 10:55:30 PM 44.9914 -120.1172 302° West 426 490 36,000 -1,091 Level Seattle Center
Sat 10:56:30 PM 45.0531 -120.2572 302° West 419 482 33,800 -2,628 Descending Seattle Center
Sat 10:57:31 PM 45.1142 -120.3972 302° West 418 481 30,700 -2,361 Descending Seattle Center
Sat 10:58:32 PM 45.1836 -120.5586 301° West 398 458 29,000 -1,934 Descending Seattle Center
Sat 10:59:32 PM 45.2308 -120.6872 298° West 371 427 26,800 -2,132 Descending Seattle Center
Sat 11:00:33 PM 45.2783 -120.8103 299° West 358 412 24,700 -2,016 Descending Seattle Center
Sat 11:01:34 PM 45.3239 -120.9308 298° West 349 402 22,700 -2,132 Descending Seattle Center
Sat 11:02:34 PM 45.3700 -121.0467 300° West 338 389 20,400 -2,231 Descending Seattle Center
Sat 11:03:35 PM 45.4139 -121.1642 298° West 336 387 18,200 -2,115 Descending Seattle Center
Sat 11:04:36 PM 45.4453 -121.2853 290° West 329 379 16,100 -2,033 Descending Seattle Center
Sat 11:05:36 PM 45.4697 -121.4072 286° West 322 371 14,100 -1,983 Descending Seattle Center
Sat 11:06:37 PM 45.4933 -121.5306 285° West 324 373 12,100 -1,736 Descending Seattle Center
Sat 11:07:37 PM 45.5161 -121.6486 285° West 311 358 10,600 -1,091 Descending Seattle Center
Sat 11:08:38 PM 45.5308 -121.7550 281° West 274 315 9,900 -984 Descending Seattle Center
Sat 11:09:39 PM 45.5278 -121.8575 268° West 259 298 8,600 -1,433 Descending Seattle Center
Sat 11:10:52 PM 45.5242 -121.9906 268° West 252 290 6,700 -1,473 Descending Seattle Center
Sat 11:11:29 PM 45.5239 -122.0525 270° West 253 291 5,900 -804 Descending Seattle Center
Sat 11:12:29 PM 45.5194 -122.1469 266° West 234 269 5,400 -645 Descending Seattle Center
Sat 11:13:30 PM 45.5189 -122.2275 269° West 193 222 4,600 -902 Descending Seattle Center
Sat 11:14:42 PM 45.5172 -122.3139 268° West 199 229 3,400 -864 Descending Seattle Center
Sat 11:15:42 PM 45.5169 -122.3906 270° West 195 224 2,700 -843 Descending Seattle Center
Sat 11:16:43 PM 45.5403 -122.4533 298° West 181 208 1,700 -984 Descending Seattle Center

Login

Don't have an account? Register now (free) for customized features, flight alerts, and more!